createdAt,value
2018-04-17T00:00:46.243Z,6.40
2018-04-17T00:01:46.240Z,6.30
2018-04-17T00:02:46.238Z,6.60
2018-04-17T00:03:46.226Z,7.00
2018-04-17T00:04:46.219Z,6.50
2018-04-17T00:05:46.205Z,6.50
2018-04-17T00:06:46.200Z,6.50
2018-04-17T00:07:46.195Z,6.50
2018-04-17T00:08:46.187Z,6.60
2018-04-17T00:09:46.178Z,6.50
2018-04-17T00:10:46.171Z,6.70
2018-04-17T00:11:46.163Z,6.40
2018-04-17T00:12:46.153Z,6.70
2018-04-17T00:13:46.150Z,6.20
2018-04-17T00:14:46.142Z,6.00
2018-04-17T00:15:46.138Z,6.70
2018-04-17T00:16:46.127Z,6.50
2018-04-17T00:17:46.118Z,6.50
2018-04-17T00:18:46.109Z,6.80
2018-04-17T00:19:46.099Z,6.30
2018-04-17T00:20:46.096Z,6.10
2018-04-17T00:21:46.088Z,7.10
2018-04-17T00:22:46.081Z,6.50
2018-04-17T00:23:46.073Z,6.60
2018-04-17T00:24:46.064Z,6.90
2018-04-17T00:25:46.058Z,6.40
2018-04-17T00:26:46.051Z,6.90
2018-04-17T00:27:46.038Z,6.50
2018-04-17T00:28:46.033Z,6.80
2018-04-17T00:29:46.027Z,7.30
2018-04-17T00:30:46.028Z,7.50
2018-04-17T00:31:46.012Z,6.60
2018-04-17T00:32:46.001Z,7.00
2018-04-17T00:33:46.000Z,6.80
2018-04-17T00:34:45.987Z,7.40
2018-04-17T00:35:45.981Z,6.50
2018-04-17T00:36:45.969Z,7.10
2018-04-17T00:37:45.968Z,6.80
2018-04-17T00:38:45.959Z,6.80
2018-04-17T00:39:45.948Z,6.80
2018-04-17T00:40:45.940Z,7.30
2018-04-17T00:41:45.931Z,6.80
2018-04-17T00:42:45.925Z,7.40
2018-04-17T00:43:45.918Z,7.10
2018-04-17T00:44:45.912Z,7.60
2018-04-17T00:45:45.922Z,7.40
2018-04-17T00:46:45.899Z,7.70
2018-04-17T00:47:45.893Z,8.20
2018-04-17T00:48:45.879Z,7.60
2018-04-17T00:49:45.874Z,7.70
2018-04-17T00:50:45.864Z,7.50
2018-04-17T00:51:45.859Z,7.80
2018-04-17T00:52:45.860Z,7.40
2018-04-17T00:53:45.842Z,7.30
2018-04-17T00:54:45.839Z,7.60
2018-04-17T00:55:45.826Z,7.20
2018-04-17T00:56:45.855Z,7.80
2018-04-17T00:57:45.812Z,7.30
2018-04-17T00:58:45.805Z,7.10
2018-04-17T00:59:45.820Z,7.60
2018-04-17T01:00:45.804Z,7.50
2018-04-17T01:01:45.779Z,7.70
2018-04-17T01:02:45.775Z,6.90
2018-04-17T01:03:45.767Z,7.40
2018-04-17T01:04:45.767Z,7.90
2018-04-17T01:05:45.752Z,8.20
2018-04-17T01:06:45.742Z,7.60
2018-04-17T01:07:45.736Z,7.60
2018-04-17T01:08:45.724Z,7.60
2018-04-17T01:09:45.720Z,7.30
2018-04-17T01:10:45.711Z,7.70
2018-04-17T01:11:45.704Z,8.10
2018-04-17T01:12:45.699Z,8.40
2018-04-17T01:13:45.691Z,8.00
2018-04-17T01:14:45.696Z,7.20
2018-04-17T01:15:45.678Z,8.40
2018-04-17T01:16:45.666Z,7.20
2018-04-17T01:17:45.658Z,8.30
2018-04-17T01:18:45.648Z,8.00
2018-04-17T01:19:45.644Z,8.80
2018-04-17T01:20:45.633Z,8.60
2018-04-17T01:21:45.650Z,8.50
2018-04-17T01:22:45.614Z,8.50
2018-04-17T01:23:45.611Z,7.90
2018-04-17T01:24:45.604Z,8.20
2018-04-17T01:25:45.598Z,7.70
2018-04-17T01:26:45.584Z,8.30
2018-04-17T01:27:45.580Z,8.30
2018-04-17T01:28:45.567Z,9.00
2018-04-17T01:29:45.559Z,7.80
2018-04-17T01:30:45.556Z,8.10
2018-04-17T01:31:45.548Z,7.50
2018-04-17T01:32:45.543Z,8.60
2018-04-17T01:33:45.531Z,8.70
2018-04-17T01:34:45.523Z,8.20
2018-04-17T01:35:45.515Z,8.50
2018-04-17T01:36:45.506Z,8.90
2018-04-17T01:37:45.499Z,8.80
2018-04-17T01:38:45.491Z,7.90
2018-04-17T01:39:45.482Z,8.00
2018-04-17T01:40:45.472Z,8.50
2018-04-17T01:41:45.465Z,8.60
2018-04-17T01:42:45.456Z,8.30
2018-04-17T01:43:45.450Z,8.40
2018-04-17T01:44:45.443Z,8.20
2018-04-17T01:45:45.436Z,8.00
2018-04-17T01:46:45.424Z,8.90
2018-04-17T01:47:45.420Z,8.50
2018-04-17T01:48:45.411Z,8.40
2018-04-17T01:49:45.401Z,8.70
2018-04-17T01:50:45.396Z,8.60
2018-04-17T01:51:45.389Z,8.40
2018-04-17T01:52:45.381Z,8.10
2018-04-17T01:53:45.369Z,8.10
2018-04-17T01:54:45.376Z,8.60
2018-04-17T01:55:45.356Z,7.80
2018-04-17T01:56:45.346Z,8.60
2018-04-17T01:57:45.339Z,9.00
2018-04-17T01:58:45.337Z,8.70
2018-04-17T01:59:45.340Z,9.20
2018-04-17T02:00:45.321Z,9.10
2018-04-17T02:01:45.321Z,9.30
2018-04-17T02:02:45.315Z,8.60
2018-04-17T02:03:45.309Z,8.90
2018-04-17T02:04:45.295Z,8.90
2018-04-17T02:05:45.285Z,9.10
2018-04-17T02:06:45.272Z,8.30
2018-04-17T02:07:45.310Z,9.20
2018-04-17T02:08:45.255Z,9.30
2018-04-17T02:09:45.243Z,9.40
2018-04-17T02:10:45.234Z,8.80
2018-04-17T02:11:45.231Z,8.60
2018-04-17T02:12:45.223Z,8.30
2018-04-17T02:13:45.209Z,8.80
2018-04-17T02:14:45.202Z,8.90
2018-04-17T02:15:45.204Z,9.40
2018-04-17T02:16:45.210Z,8.80
2018-04-17T02:17:45.188Z,8.60
2018-04-17T02:18:45.177Z,10.20
2018-04-17T02:19:45.167Z,9.30
2018-04-17T02:20:45.158Z,8.60
2018-04-17T02:21:45.148Z,8.90
2018-04-17T02:22:45.140Z,8.60
2018-04-17T02:23:45.158Z,9.10
2018-04-17T02:24:45.125Z,9.80
2018-04-17T02:25:45.120Z,9.20
2018-04-17T02:26:45.109Z,9.40
2018-04-17T02:27:45.102Z,8.80
2018-04-17T02:28:45.092Z,8.70
2018-04-17T02:29:45.082Z,8.60
2018-04-17T02:30:45.074Z,8.70
2018-04-17T02:31:45.067Z,8.90
2018-04-17T02:32:45.061Z,9.60
2018-04-17T02:33:45.056Z,9.40
2018-04-17T02:34:45.043Z,9.40
2018-04-17T02:35:45.037Z,9.40
2018-04-17T02:36:45.024Z,9.80
2018-04-17T02:37:45.019Z,9.40
2018-04-17T02:38:45.013Z,9.20
2018-04-17T02:39:45.009Z,9.20
2018-04-17T02:40:44.999Z,9.30
2018-04-17T02:41:45.012Z,10.40
2018-04-17T02:42:44.978Z,10.00
2018-04-17T02:43:44.967Z,9.40
2018-04-17T02:44:44.960Z,10.00
2018-04-17T02:45:44.960Z,9.70
2018-04-17T02:46:44.947Z,10.00
2018-04-17T02:47:44.939Z,9.30
2018-04-17T02:48:44.934Z,10.10
2018-04-17T02:49:44.920Z,10.60
2018-04-17T02:50:44.915Z,9.80
2018-04-17T02:51:44.908Z,8.90
2018-04-17T02:52:44.898Z,9.60
2018-04-17T02:53:44.892Z,9.80
2018-04-17T02:54:44.888Z,10.20
2018-04-17T02:55:44.879Z,10.00
2018-04-17T02:56:44.864Z,9.80
2018-04-17T02:57:44.884Z,10.70
2018-04-17T02:58:44.843Z,10.90
2018-04-17T02:59:44.839Z,10.40
2018-04-17T03:00:44.829Z,11.20
2018-04-17T03:01:44.824Z,10.70
2018-04-17T03:02:44.816Z,11.00
2018-04-17T03:03:44.803Z,10.30
2018-04-17T03:04:44.795Z,10.40
2018-04-17T03:05:44.790Z,10.90
2018-04-17T03:06:44.784Z,10.80
2018-04-17T03:07:44.780Z,9.70
2018-04-17T03:08:44.767Z,10.90
2018-04-17T03:09:44.754Z,10.20
2018-04-17T03:10:44.745Z,11.50
2018-04-17T03:11:44.740Z,10.50
2018-04-17T03:12:44.732Z,10.90
2018-04-17T03:13:44.727Z,10.80
2018-04-17T03:14:44.718Z,10.50
2018-04-17T03:15:44.713Z,10.50
2018-04-17T03:16:44.694Z,10.90
2018-04-17T03:17:44.687Z,10.80
2018-04-17T03:18:44.682Z,11.20
2018-04-17T03:19:44.676Z,11.10
2018-04-17T03:20:44.663Z,11.20
2018-04-17T03:21:44.660Z,11.20
2018-04-17T03:22:44.647Z,11.60
2018-04-17T03:23:44.638Z,10.80
2018-04-17T03:24:44.625Z,10.60
2018-04-17T03:25:44.625Z,11.20
2018-04-17T03:26:44.611Z,10.90
2018-04-17T03:27:44.611Z,10.50
2018-04-17T03:28:44.602Z,11.10
2018-04-17T03:29:44.590Z,10.80
2018-04-17T03:30:44.581Z,10.30
2018-04-17T03:31:44.575Z,11.10
2018-04-17T03:32:44.562Z,10.80
2018-04-17T03:33:44.558Z,11.30
2018-04-17T03:34:44.550Z,11.40
2018-04-17T03:35:44.542Z,11.10
2018-04-17T03:36:44.525Z,11.10
2018-04-17T03:37:44.523Z,11.60
2018-04-17T03:38:44.517Z,11.50
2018-04-17T03:39:44.502Z,11.80
2018-04-17T03:40:44.504Z,11.70
2018-04-17T03:41:44.487Z,11.40
2018-04-17T03:42:44.477Z,11.80
2018-04-17T03:43:44.468Z,11.00
2018-04-17T03:44:44.458Z,12.10
2018-04-17T03:45:44.453Z,11.30
2018-04-17T03:46:44.450Z,11.40
2018-04-17T03:47:44.440Z,11.50
2018-04-17T03:48:44.429Z,11.60
2018-04-17T03:49:44.419Z,10.60
2018-04-17T03:50:44.409Z,11.50
2018-04-17T03:51:44.425Z,13.00
2018-04-17T03:52:44.391Z,11.90
2018-04-17T03:53:44.387Z,11.40
2018-04-17T03:54:44.378Z,11.60
2018-04-17T03:55:44.368Z,12.90
2018-04-17T03:56:44.368Z,12.10
2018-04-17T03:57:44.351Z,12.80
2018-04-17T03:58:44.341Z,11.80
2018-04-17T03:59:44.334Z,12.90
2018-04-17T04:00:44.323Z,12.00
2018-04-17T04:01:44.318Z,11.00
2018-04-17T04:02:44.326Z,12.70
2018-04-17T04:03:44.306Z,12.00
2018-04-17T04:04:44.293Z,11.60
2018-04-17T04:05:44.283Z,12.30
2018-04-17T04:06:44.275Z,11.50
2018-04-17T04:07:44.265Z,12.60
2018-04-17T04:08:44.255Z,11.40
2018-04-17T04:09:44.252Z,12.10
2018-04-17T04:10:44.239Z,11.70
2018-04-17T04:11:44.233Z,11.30
2018-04-17T04:12:44.223Z,12.20
2018-04-17T04:13:44.214Z,12.00
2018-04-17T04:14:44.211Z,11.80
2018-04-17T04:15:44.205Z,12.20
2018-04-17T04:16:44.189Z,12.00
2018-04-17T04:17:44.191Z,12.10
2018-04-17T04:18:44.176Z,11.80
2018-04-17T04:19:44.166Z,11.60
2018-04-17T04:20:44.155Z,12.80
2018-04-17T04:21:44.144Z,10.70
2018-04-17T04:22:44.136Z,12.20
2018-04-17T04:23:44.130Z,11.20
2018-04-17T04:24:44.121Z,12.30
2018-04-17T04:25:44.118Z,12.60
2018-04-17T04:26:44.110Z,12.10
2018-04-17T04:27:44.097Z,12.60
2018-04-17T04:28:44.089Z,12.70
2018-04-17T04:29:44.080Z,13.00
2018-04-17T04:30:44.074Z,11.80
2018-04-17T04:31:44.064Z,13.30
2018-04-17T04:32:44.053Z,13.60
2018-04-17T04:33:44.041Z,12.40
2018-04-17T04:34:44.083Z,13.30
2018-04-17T04:35:44.029Z,12.60
2018-04-17T04:36:44.018Z,13.10
2018-04-17T04:37:44.009Z,13.00
2018-04-17T04:38:44.005Z,12.60
2018-04-17T04:39:43.996Z,13.90
2018-04-17T04:40:44.004Z,13.80
2018-04-17T04:41:43.973Z,13.90
2018-04-17T04:42:43.965Z,13.10
2018-04-17T04:43:43.956Z,14.10
2018-04-17T04:44:43.950Z,14.60
2018-04-17T04:45:43.943Z,13.80
2018-04-17T04:46:43.933Z,13.20
2018-04-17T04:47:43.931Z,13.90
2018-04-17T04:48:43.916Z,13.80
2018-04-17T04:49:43.909Z,14.10
2018-04-17T04:50:43.898Z,14.60
2018-04-17T04:51:43.893Z,14.00
2018-04-17T04:52:43.886Z,14.00
2018-04-17T04:53:43.873Z,14.10
2018-04-17T04:54:43.867Z,14.40
2018-04-17T04:55:43.858Z,14.60
2018-04-17T04:56:43.849Z,14.20
2018-04-17T04:57:43.848Z,14.90
2018-04-17T04:58:43.833Z,15.40
2018-04-17T04:59:43.825Z,15.80
2018-04-17T05:00:43.816Z,15.30
2018-04-17T05:01:43.804Z,15.70
2018-04-17T05:02:43.794Z,15.80
2018-04-17T05:03:43.788Z,16.30
2018-04-17T05:04:43.849Z,15.60
2018-04-17T05:05:43.775Z,15.00
2018-04-17T05:06:43.779Z,15.90
2018-04-17T05:07:43.761Z,15.10
2018-04-17T05:08:43.756Z,15.50
2018-04-17T05:09:43.736Z,15.60
2018-04-17T05:10:43.734Z,15.10
2018-04-17T05:11:43.726Z,15.30
2018-04-17T05:12:43.721Z,14.50
2018-04-17T05:13:43.711Z,14.40
2018-04-17T05:14:43.731Z,14.30
2018-04-17T05:15:43.701Z,12.30
2018-04-17T05:16:43.680Z,13.60
2018-04-17T05:17:43.673Z,12.00
2018-04-17T05:18:43.668Z,13.50
2018-04-17T05:19:43.658Z,13.70
2018-04-17T05:20:43.650Z,12.40
2018-04-17T05:21:43.637Z,13.20
2018-04-17T05:22:43.634Z,14.30
2018-04-17T05:23:43.637Z,12.30
2018-04-17T05:24:43.618Z,12.10
2018-04-17T05:25:43.612Z,12.10
2018-04-17T05:26:43.603Z,10.80
2018-04-17T05:27:43.629Z,12.20
2018-04-17T05:28:43.585Z,12.10
2018-04-17T05:29:43.603Z,11.40
2018-04-17T05:30:43.573Z,13.20
2018-04-17T05:31:43.565Z,13.00
2018-04-17T05:32:43.557Z,14.00
2018-04-17T05:33:43.549Z,14.60
2018-04-17T05:34:43.545Z,14.60
2018-04-17T05:35:43.533Z,15.40
2018-04-17T05:36:43.526Z,15.80
2018-04-17T05:37:43.518Z,15.50
2018-04-17T05:38:43.514Z,16.90
2018-04-17T05:39:43.510Z,15.80
2018-04-17T05:40:43.501Z,16.70
2018-04-17T05:41:43.490Z,18.90
2018-04-17T05:42:43.491Z,18.30
2018-04-17T05:43:43.476Z,18.20
2018-04-17T05:44:43.466Z,19.70
2018-04-17T05:45:43.459Z,18.60
2018-04-17T05:46:43.456Z,19.00
2018-04-17T05:47:43.448Z,19.50
2018-04-17T05:48:43.445Z,17.80
2018-04-17T05:49:43.430Z,17.90
2018-04-17T05:50:43.426Z,17.10
2018-04-17T05:51:43.420Z,17.90
2018-04-17T05:52:43.421Z,17.80
2018-04-17T05:53:43.417Z,16.50
2018-04-17T05:54:43.397Z,18.40
2018-04-17T05:55:43.438Z,16.30
2018-04-17T05:56:43.380Z,17.40
2018-04-17T05:57:43.398Z,17.40
2018-04-17T05:58:43.371Z,16.50
2018-04-17T05:59:43.368Z,16.90
2018-04-17T06:00:43.356Z,17.10
2018-04-17T06:01:43.348Z,17.00
2018-04-17T06:02:43.340Z,16.60
2018-04-17T06:03:43.334Z,18.60
2018-04-17T06:04:43.325Z,17.10
2018-04-17T06:05:43.321Z,17.20
2018-04-17T06:06:43.314Z,16.70
2018-04-17T06:07:43.313Z,16.70
2018-04-17T06:08:43.294Z,16.40
2018-04-17T06:09:43.292Z,15.60
2018-04-17T06:10:43.281Z,16.90
2018-04-17T06:11:43.277Z,16.40
2018-04-17T06:12:43.272Z,16.90
2018-04-17T06:13:43.323Z,16.50
2018-04-17T06:14:43.259Z,16.10
2018-04-17T06:15:43.251Z,16.40
2018-04-17T06:16:43.240Z,17.40
2018-04-17T06:17:43.234Z,16.00
2018-04-17T06:18:43.234Z,16.40
2018-04-17T06:19:43.224Z,16.40
2018-04-17T06:20:43.215Z,16.60
2018-04-17T06:21:43.211Z,16.00
2018-04-17T06:22:43.204Z,16.50
2018-04-17T06:23:43.193Z,16.50
2018-04-17T06:24:43.186Z,17.10
2018-04-17T06:25:43.181Z,15.80
2018-04-17T06:26:43.173Z,16.90
2018-04-17T06:27:43.169Z,15.40
2018-04-17T06:28:43.163Z,15.70
2018-04-17T06:29:43.159Z,16.30
2018-04-17T06:30:43.151Z,15.00
2018-04-17T06:31:43.140Z,14.90
2018-04-17T06:32:43.137Z,14.50
2018-04-17T06:33:43.130Z,15.00
2018-04-17T06:34:43.122Z,14.90
2018-04-17T06:35:43.116Z,15.20
2018-04-17T06:36:43.111Z,16.00
2018-04-17T06:37:43.104Z,15.10
2018-04-17T06:38:43.099Z,15.40
2018-04-17T06:39:43.093Z,15.60
2018-04-17T06:40:43.085Z,15.30
2018-04-17T06:41:43.165Z,15.70
2018-04-17T06:42:43.088Z,15.10
2018-04-17T06:43:43.070Z,15.60
2018-04-17T06:44:43.062Z,16.30
2018-04-17T06:45:43.050Z,15.60
2018-04-17T06:46:43.053Z,15.80
2018-04-17T06:47:43.091Z,16.40
2018-04-17T06:48:43.040Z,15.90
2018-04-17T06:49:43.032Z,16.50
2018-04-17T06:50:43.031Z,16.70
2018-04-17T06:51:43.016Z,17.00
2018-04-17T06:52:43.093Z,15.70
2018-04-17T06:53:43.026Z,16.50
2018-04-17T06:54:43.024Z,16.40
2018-04-17T06:55:42.996Z,16.00
2018-04-17T06:56:42.990Z,16.60
2018-04-17T06:57:42.984Z,16.20
2018-04-17T06:58:42.978Z,16.30
2018-04-17T06:59:42.971Z,16.80
2018-04-17T07:00:42.965Z,17.30
2018-04-17T07:01:42.959Z,16.70
2018-04-17T07:02:42.952Z,17.60
2018-04-17T07:03:42.950Z,18.00
2018-04-17T07:04:42.943Z,18.00
2018-04-17T07:05:42.935Z,18.00
2018-04-17T07:06:42.941Z,18.80
2018-04-17T07:07:42.926Z,18.70
2018-04-17T07:08:42.925Z,17.20
2018-04-17T07:09:42.914Z,18.60
2018-04-17T07:10:42.910Z,17.90
2018-04-17T07:11:42.951Z,18.90
2018-04-17T07:12:42.894Z,18.00
2018-04-17T07:13:42.889Z,18.00
2018-04-17T07:14:42.886Z,18.10
2018-04-17T07:15:42.884Z,17.60
2018-04-17T07:16:42.876Z,19.40
2018-04-17T07:17:42.868Z,18.20
2018-04-17T07:18:42.863Z,18.40
2018-04-17T07:19:42.854Z,18.20
2018-04-17T07:20:42.847Z,19.20
2018-04-17T07:21:42.839Z,18.20
2018-04-17T07:22:42.837Z,18.30
2018-04-17T07:23:42.898Z,18.70
2018-04-17T07:24:42.824Z,18.20
2018-04-17T07:25:42.821Z,19.20
2018-04-17T07:26:42.814Z,17.40
2018-04-17T07:27:42.809Z,18.90
2018-04-17T07:28:42.803Z,17.90
2018-04-17T07:29:42.801Z,16.80
2018-04-17T07:30:42.796Z,17.60
2018-04-17T07:31:42.791Z,16.20
2018-04-17T07:32:42.784Z,17.00
2018-04-17T07:33:42.785Z,16.10
2018-04-17T07:34:42.780Z,15.50
2018-04-17T07:35:42.772Z,16.00
2018-04-17T07:36:42.764Z,15.70
2018-04-17T07:37:42.762Z,17.30
2018-04-17T07:38:43.441Z,16.40
2018-04-17T07:39:42.755Z,17.10
2018-04-17T07:40:42.744Z,16.60
2018-04-17T07:41:42.743Z,16.30
2018-04-17T07:42:42.735Z,16.40
2018-04-17T07:43:42.735Z,15.80
2018-04-17T07:44:42.731Z,15.30
2018-04-17T07:45:42.725Z,15.30
2018-04-17T07:46:42.721Z,14.50
2018-04-17T07:47:42.715Z,15.90
2018-04-17T07:48:42.709Z,15.20
2018-04-17T07:49:42.710Z,16.50
2018-04-17T07:50:42.704Z,16.10
2018-04-17T07:51:42.702Z,16.00
2018-04-17T07:52:42.699Z,16.00
2018-04-17T07:53:42.694Z,14.90
2018-04-17T07:54:42.696Z,14.20
2018-04-17T07:55:42.729Z,14.40
2018-04-17T07:56:42.681Z,14.40
2018-04-17T07:57:42.676Z,15.20
2018-04-17T07:58:42.681Z,16.00
2018-04-17T07:59:42.675Z,15.50
2018-04-17T08:00:42.671Z,15.50
2018-04-17T08:01:42.668Z,15.00
2018-04-17T08:02:42.662Z,14.30
2018-04-17T08:03:42.663Z,13.90
2018-04-17T08:04:42.660Z,14.60
2018-04-17T08:05:42.664Z,14.80
2018-04-17T08:06:42.659Z,14.80
2018-04-17T08:07:42.656Z,12.80
2018-04-17T08:08:42.650Z,13.30
2018-04-17T08:09:42.646Z,13.90
2018-04-17T08:10:42.652Z,12.60
2018-04-17T08:11:42.646Z,12.50
2018-04-17T08:12:42.664Z,12.90
2018-04-17T08:13:42.651Z,12.30
2018-04-17T08:14:42.649Z,12.80
2018-04-17T08:15:42.648Z,12.30
2018-04-17T08:16:42.646Z,12.60
2018-04-17T08:17:42.646Z,12.70
2018-04-17T08:18:42.648Z,11.90
2018-04-17T08:19:42.651Z,12.20
2018-04-17T08:20:42.651Z,12.00
2018-04-17T08:21:42.655Z,11.50
2018-04-17T08:22:42.651Z,11.50
2018-04-17T08:23:42.656Z,11.30
2018-04-17T08:24:42.653Z,10.20
2018-04-17T08:25:42.661Z,10.40
2018-04-17T08:26:42.663Z,10.60
2018-04-17T08:27:42.666Z,10.00
2018-04-17T08:28:42.665Z,9.80
2018-04-17T08:29:42.668Z,11.00
2018-04-17T08:30:42.669Z,10.30
2018-04-17T08:31:42.675Z,9.80
2018-04-17T08:32:42.683Z,9.60
2018-04-17T08:33:42.681Z,10.60
2018-04-17T08:34:42.687Z,9.60
2018-04-17T08:35:42.698Z,9.90
2018-04-17T08:36:42.701Z,9.20
2018-04-17T08:37:42.699Z,8.90
2018-04-17T08:38:42.706Z,9.10
2018-04-17T08:39:42.713Z,9.50
2018-04-17T08:40:42.720Z,9.70
2018-04-17T08:41:42.723Z,9.30
2018-04-17T08:42:42.732Z,9.20
2018-04-17T08:43:42.732Z,9.30
2018-04-17T08:44:42.740Z,8.60
2018-04-17T08:45:42.740Z,8.90
2018-04-17T08:46:42.750Z,9.60
2018-04-17T08:47:42.754Z,8.90
2018-04-17T08:48:42.764Z,9.30
2018-04-17T08:49:42.761Z,9.10
2018-04-17T08:50:42.772Z,9.60
2018-04-17T08:51:42.778Z,9.60
2018-04-17T08:52:42.782Z,9.30
2018-04-17T08:53:42.786Z,8.70
2018-04-17T08:54:42.797Z,9.30
2018-04-17T08:55:42.804Z,10.10
2018-04-17T08:56:42.807Z,9.20
2018-04-17T08:57:42.811Z,9.40
2018-04-17T08:58:42.820Z,9.30
2018-04-17T08:59:42.847Z,9.80
2018-04-17T09:00:42.887Z,10.10
2018-04-17T09:01:42.846Z,9.90
2018-04-17T09:02:42.849Z,8.80
2018-04-17T09:03:42.853Z,8.90
2018-04-17T09:04:42.858Z,8.80
2018-04-17T09:05:42.865Z,8.90
2018-04-17T09:06:42.877Z,8.00
2018-04-17T09:07:42.883Z,8.80
2018-04-17T09:08:42.890Z,8.20
2018-04-17T09:09:42.900Z,9.00
2018-04-17T09:10:42.918Z,7.60
2018-04-17T09:11:42.952Z,8.60
2018-04-17T09:12:42.917Z,8.20
2018-04-17T09:13:42.928Z,8.20
2018-04-17T09:14:42.933Z,8.30
2018-04-17T09:15:42.938Z,8.10
2018-04-17T09:16:42.949Z,9.00
2018-04-17T09:17:42.954Z,8.60
2018-04-17T09:18:42.959Z,8.50
2018-04-17T09:19:42.970Z,8.60
2018-04-17T09:20:42.980Z,8.00
2018-04-17T09:21:42.990Z,8.60
2018-04-17T09:22:42.994Z,8.70
2018-04-17T09:23:43.003Z,8.50
2018-04-17T09:24:43.006Z,8.20
2018-04-17T09:25:43.016Z,8.20
2018-04-17T09:26:43.029Z,8.00
2018-04-17T09:27:43.061Z,8.30
2018-04-17T09:28:43.072Z,8.20
2018-04-17T09:29:43.049Z,9.30
2018-04-17T09:30:43.070Z,9.40
2018-04-17T09:31:43.073Z,9.50
2018-04-17T09:32:43.066Z,9.90
2018-04-17T09:33:43.073Z,8.90
2018-04-17T09:34:43.087Z,9.70
2018-04-17T09:35:43.090Z,9.60
2018-04-17T09:36:43.100Z,9.60
2018-04-17T09:37:43.106Z,9.10
2018-04-17T09:38:43.113Z,9.00
2018-04-17T09:39:43.127Z,10.20
2018-04-17T09:40:43.133Z,10.80
2018-04-17T09:41:43.137Z,10.50
2018-04-17T09:42:43.150Z,10.00
2018-04-17T09:43:43.156Z,9.60
2018-04-17T09:44:43.160Z,9.30
2018-04-17T09:45:43.166Z,9.70
2018-04-17T09:46:43.174Z,9.60
2018-04-17T09:47:43.213Z,9.40
2018-04-17T09:48:43.203Z,10.10
2018-04-17T09:49:43.204Z,9.90
2018-04-17T09:50:43.205Z,10.30
2018-04-17T09:51:43.220Z,8.70
2018-04-17T09:52:43.234Z,9.70
2018-04-17T09:53:43.230Z,10.00
2018-04-17T09:54:43.248Z,9.80
2018-04-17T09:55:43.258Z,10.40
2018-04-17T09:56:43.260Z,10.20
2018-04-17T09:57:43.268Z,9.10
2018-04-17T09:58:43.274Z,9.20
2018-04-17T09:59:43.281Z,9.90
2018-04-17T10:00:43.301Z,9.40
2018-04-17T10:01:43.306Z,9.40
2018-04-17T10:02:43.313Z,9.10
2018-04-17T10:03:43.321Z,8.90
2018-04-17T10:04:43.329Z,8.70
2018-04-17T10:05:43.333Z,9.10
2018-04-17T10:06:43.341Z,9.20
2018-04-17T10:07:43.362Z,9.80
2018-04-17T10:08:43.367Z,9.50
2018-04-17T10:09:43.369Z,9.40
2018-04-17T10:10:43.375Z,9.10
2018-04-17T10:11:43.380Z,9.40
2018-04-17T10:12:43.387Z,8.90
2018-04-17T10:13:43.399Z,9.80
2018-04-17T10:14:43.404Z,9.30
2018-04-17T10:15:43.415Z,9.20
2018-04-17T10:16:43.422Z,10.10
2018-04-17T10:17:43.430Z,9.30
2018-04-17T10:18:43.435Z,8.40
2018-04-17T10:19:43.443Z,8.70
2018-04-17T10:20:43.450Z,8.60
2018-04-17T10:21:43.462Z,8.50
2018-04-17T10:22:43.476Z,8.30
2018-04-17T10:23:43.479Z,8.80
2018-04-17T10:24:43.484Z,8.50
2018-04-17T10:25:43.493Z,8.60
2018-04-17T10:26:43.505Z,8.70
2018-04-17T10:27:43.515Z,8.80
2018-04-17T10:28:43.519Z,9.30
2018-04-17T10:29:43.526Z,9.80
2018-04-17T10:30:43.539Z,10.40
2018-04-17T10:31:43.542Z,10.00
2018-04-17T10:32:44.490Z,9.20
2018-04-17T10:33:43.567Z,9.20
2018-04-17T10:34:43.568Z,9.30
2018-04-17T10:35:43.578Z,9.60
2018-04-17T10:36:43.583Z,8.90
2018-04-17T10:37:43.593Z,9.30
2018-04-17T10:38:43.595Z,8.90
2018-04-17T10:39:43.661Z,8.40
2018-04-17T10:40:43.613Z,8.10
2018-04-17T10:41:43.623Z,9.10
2018-04-17T10:42:43.634Z,7.90
2018-04-17T10:43:43.641Z,8.80
2018-04-17T10:44:43.642Z,9.20
2018-04-17T10:45:43.655Z,8.80
2018-04-17T10:46:43.663Z,9.10
2018-04-17T10:47:43.674Z,8.70
2018-04-17T10:48:43.681Z,8.90
2018-04-17T10:49:43.686Z,9.00
2018-04-17T10:50:43.699Z,8.80
2018-04-17T10:51:43.701Z,8.40
2018-04-17T10:52:43.712Z,8.70
2018-04-17T10:53:43.716Z,9.20
2018-04-17T10:54:43.726Z,9.00
2018-04-17T10:55:43.735Z,8.90
2018-04-17T10:56:43.739Z,8.40
2018-04-17T10:57:43.748Z,9.10
2018-04-17T10:58:43.752Z,9.90
2018-04-17T10:59:43.780Z,10.00
2018-04-17T11:00:43.771Z,8.70
2018-04-17T11:01:43.777Z,9.40
2018-04-17T11:02:43.787Z,9.60
2018-04-17T11:03:43.799Z,9.60
2018-04-17T11:04:43.800Z,9.80
2018-04-17T11:05:43.826Z,10.30
2018-04-17T11:06:43.813Z,10.60
2018-04-17T11:07:43.833Z,10.20
2018-04-17T11:08:43.832Z,9.60
2018-04-17T11:09:43.845Z,9.10
2018-04-17T11:10:43.868Z,9.10
2018-04-17T11:11:43.867Z,8.80
2018-04-17T11:12:43.859Z,8.20
2018-04-17T11:13:43.872Z,9.00
2018-04-17T11:14:43.883Z,8.60
2018-04-17T11:15:43.891Z,8.90
2018-04-17T11:16:43.896Z,9.00
2018-04-17T11:17:43.903Z,9.20
2018-04-17T11:18:43.909Z,8.80
2018-04-17T11:19:43.919Z,9.00
2018-04-17T11:20:43.927Z,9.00
2018-04-17T11:21:43.940Z,9.00
2018-04-17T11:22:43.951Z,9.20
2018-04-17T11:23:43.959Z,8.50
2018-04-17T11:24:43.967Z,9.50
2018-04-17T11:25:43.973Z,9.10
2018-04-17T11:26:43.982Z,9.40
2018-04-17T11:27:43.989Z,9.60
2018-04-17T11:28:43.998Z,9.90
2018-04-17T11:29:44.006Z,9.60
2018-04-17T11:30:44.017Z,9.00
2018-04-17T11:31:44.020Z,9.60
2018-04-17T11:32:44.037Z,9.10
2018-04-17T11:33:44.040Z,7.90
2018-04-17T11:34:44.073Z,8.60
2018-04-17T11:35:44.062Z,9.20
2018-04-17T11:36:44.066Z,8.90
2018-04-17T11:37:44.080Z,9.00
2018-04-17T11:38:44.088Z,10.00
2018-04-17T11:39:44.094Z,9.90
2018-04-17T11:40:44.107Z,9.40
2018-04-17T11:41:44.117Z,10.00
2018-04-17T11:42:44.125Z,9.80
2018-04-17T11:43:44.138Z,10.00
2018-04-17T11:44:44.143Z,11.00
2018-04-17T11:45:44.154Z,10.80
2018-04-17T11:46:44.162Z,11.10
2018-04-17T11:47:44.174Z,10.50
2018-04-17T11:48:44.234Z,10.70
2018-04-17T11:49:44.193Z,11.40
2018-04-17T11:50:44.198Z,10.90
2018-04-17T11:51:44.207Z,10.40
2018-04-17T11:52:44.215Z,10.10
2018-04-17T11:53:44.223Z,10.00
2018-04-17T11:54:44.238Z,10.30
2018-04-17T11:55:44.245Z,9.80
2018-04-17T11:56:44.255Z,9.80
2018-04-17T11:57:44.264Z,10.00
2018-04-17T11:58:44.267Z,9.70
2018-04-17T11:59:44.285Z,10.20
2018-04-17T12:00:44.290Z,10.00
2018-04-17T12:01:44.308Z,10.00
2018-04-17T12:02:44.304Z,10.00
2018-04-17T12:03:44.317Z,9.60
2018-04-17T12:04:44.321Z,10.30
2018-04-17T12:05:44.332Z,10.10
2018-04-17T12:06:44.339Z,9.60
2018-04-17T12:07:44.365Z,10.80
2018-04-17T12:08:44.360Z,9.90
2018-04-17T12:09:44.370Z,10.20
2018-04-17T12:10:44.384Z,10.80
2018-04-17T12:11:44.390Z,9.80
2018-04-17T12:12:44.393Z,9.90
2018-04-17T12:13:44.405Z,10.70
2018-04-17T12:14:44.471Z,9.60
2018-04-17T12:15:44.421Z,9.60
2018-04-17T12:16:44.427Z,9.60
2018-04-17T12:17:44.439Z,9.20
2018-04-17T12:18:44.446Z,9.40
2018-04-17T12:19:44.453Z,9.50
2018-04-17T12:20:44.475Z,9.50
2018-04-17T12:21:44.471Z,8.80
2018-04-17T12:22:44.484Z,8.70
2018-04-17T12:23:44.495Z,9.00
2018-04-17T12:24:44.500Z,8.60
2018-04-17T12:25:44.512Z,9.10
2018-04-17T12:26:44.516Z,8.80
2018-04-17T12:27:44.522Z,8.50
2018-04-17T12:28:44.532Z,9.00
2018-04-17T12:29:44.544Z,10.10
2018-04-17T12:30:44.553Z,9.30
2018-04-17T12:31:44.563Z,9.20
2018-04-17T12:32:44.567Z,8.50
2018-04-17T12:33:44.580Z,8.60
2018-04-17T12:34:44.588Z,8.60
2018-04-17T12:35:44.598Z,8.60
2018-04-17T12:36:44.606Z,8.70
2018-04-17T12:37:44.618Z,8.40
2018-04-17T12:38:44.619Z,8.80
2018-04-17T12:39:44.633Z,7.80
2018-04-17T12:40:44.644Z,8.60
2018-04-17T12:41:44.657Z,8.00
2018-04-17T12:42:44.667Z,7.90
2018-04-17T12:43:44.679Z,8.30
2018-04-17T12:44:44.679Z,7.70
2018-04-17T12:45:44.686Z,8.00
2018-04-17T12:46:44.694Z,7.70
2018-04-17T12:47:44.711Z,7.90
2018-04-17T12:48:44.730Z,7.80
2018-04-17T12:49:44.725Z,7.60
2018-04-17T12:50:44.737Z,7.40
2018-04-17T12:51:44.739Z,7.80
2018-04-17T12:52:44.745Z,8.20
2018-04-17T12:53:44.762Z,7.80
2018-04-17T12:54:44.766Z,7.40
2018-04-17T12:55:44.779Z,8.20
2018-04-17T12:56:44.788Z,9.00
2018-04-17T12:57:44.794Z,8.80
2018-04-17T12:58:44.806Z,8.20
2018-04-17T12:59:44.813Z,8.80
2018-04-17T13:00:44.821Z,9.30
2018-04-17T13:01:44.830Z,8.40
2018-04-17T13:02:44.838Z,8.30
2018-04-17T13:03:44.848Z,8.70
2018-04-17T13:04:44.854Z,8.40
2018-04-17T13:05:44.858Z,8.70